Grand Forks Air Force Base
KRDR : now visible

Airfield :











YOU CAN JOIN US ON...

 
LOGIN :

Register | Disclaimer

   EN    FR    IT 

 









Legend :    VFR   Marginal VFR   IFR   Intensive IFR   Very Intensive IFR
Visi :
Ceiling :
>= 8 km
>= 3000ft
5 to 8 km
1000 to 3000 ft
1500m to 5 km
500 to 1000 ft
800 to 1500m
200 to 500 ft
< 800m
< 200 ft
Symbols :   Thunderstorms  Fog  Heavy snow  Heavy precipitations  Wind > 20 kt






- Airport Elevation : 913 ft


KRDR - Grand Forks Air Force Base

CURRENT METAR :
  • 121856Z 02005KT 10SM FEW030 FEW100 M16/M20 A3014 RMK AO2A SLP237 T11651201

EXPIRED METARs :
  • 121756Z 04005KT 10SM FEW030 BKN150 M17/M20 A3015 RMK AO2A SLP241 60000 4/010 T11701204 11170 21235 58011
  • 121656Z 03006KT 10SM FEW030 BKN150 M18/M20 A3017 RMK AO2A SLP248 T11791203

TAF TAF KRDR
Valid from the 12 at 18:00 until the 14 at 00:00 UTC


121800Z 1218/1324 04006KT 9999 FEW030 BKN150 QNH3005INS
BECMG 1306/1307 15009KT 9999 OVC015 620153 QNH2982INS
BECMG 1309/1310 16012KT 4800 -SN OVC015 650158 QNH2976INS
TEMPO 1315/1320 2400 -SN OVC008 650088 TXM08/1317Z TNM18/1218Z



MET'MAP, your aeronautical weather chart ! - Copyright ORBIFLY December 2007 - Disclaimer

ORBIFLY MET'MAP TEAM :

Programming & Development : Alexandra Zaïnal
Concept & original design : Baudouin d'Aumeries
Assistance for programming : Marc-Olivier Méhu
Technical & hardware support : Manuel Goepfert

Contact : metmap@orbifly.com




SOURCES & CREDITS :

   NOAA       Earth
Advisory